sensor_id;sensor_type;location;lat;lon;timestamp;temperature;humidity
16229;DHT22;8222;51.462;12.630;2023-10-13T00:01:30;17.30;99.90
16229;DHT22;8222;51.462;12.630;2023-10-13T00:03:58;17.30;99.90
16229;DHT22;8222;51.462;12.630;2023-10-13T00:06:29;17.30;99.90
16229;DHT22;8222;51.462;12.630;2023-10-13T00:08:55;17.30;99.90
16229;DHT22;8222;51.462;12.630;2023-10-13T00:11:21;17.30;99.90
16229;DHT22;8222;51.462;12.630;2023-10-13T00:13:47;17.30;99.90
16229;DHT22;8222;51.462;12.630;2023-10-13T00:16:21;17.20;99.90
16229;DHT22;8222;51.462;12.630;2023-10-13T00:18:51;17.20;99.90
16229;DHT22;8222;51.462;12.630;2023-10-13T00:21:20;17.30;99.90
16229;DHT22;8222;51.462;12.630;2023-10-13T00:23:59;17.50;99.90
16229;DHT22;8222;51.462;12.630;2023-10-13T00:26:29;17.40;99.90
16229;DHT22;8222;51.462;12.630;2023-10-13T00:31:41;17.40;99.90
16229;DHT22;8222;51.462;12.630;2023-10-13T00:34:14;17.40;99.90
16229;DHT22;8222;51.462;12.630;2023-10-13T00:36:40;17.40;99.90
16229;DHT22;8222;51.462;12.630;2023-10-13T00:39:32;17.40;99.90
16229;DHT22;8222;51.462;12.630;2023-10-13T00:42:02;17.40;99.90
16229;DHT22;8222;51.462;12.630;2023-10-13T00:44:34;17.40;99.90
16229;DHT22;8222;51.462;12.630;2023-10-13T00:47:29;17.40;99.90
16229;DHT22;8222;51.462;12.630;2023-10-13T00:50:00;17.40;99.90
16229;DHT22;8222;51.462;12.630;2023-10-13T00:52:29;17.40;99.90
16229;DHT22;8222;51.462;12.630;2023-10-13T00:55:00;17.40;99.90
16229;DHT22;8222;51.462;12.630;2023-10-13T00:57:28;17.30;99.90
16229;DHT22;8222;51.462;12.630;2023-10-13T01:00:03;17.20;99.90
16229;DHT22;8222;51.462;12.630;2023-10-13T01:02:45;17.20;99.90
16229;DHT22;8222;51.462;12.630;2023-10-13T01:05:21;17.20;99.90
16229;DHT22;8222;51.462;12.630;2023-10-13T01:07:53;17.20;99.90
16229;DHT22;8222;51.462;12.630;2023-10-13T01:10:20;17.20;99.90
16229;DHT22;8222;51.462;12.630;2023-10-13T01:12:54;17.40;99.90
16229;DHT22;8222;51.462;12.630;2023-10-13T01:15:19;17.40;99.90
16229;DHT22;8222;51.462;12.630;2023-10-13T01:17:50;17.30;99.90
16229;DHT22;8222;51.462;12.630;2023-10-13T01:20:16;17.30;99.90
16229;DHT22;8222;51.462;12.630;2023-10-13T01:22:53;17.30;99.90
16229;DHT22;8222;51.462;12.630;2023-10-13T01:25:25;17.30;99.90
16229;DHT22;8222;51.462;12.630;2023-10-13T01:27:54;17.30;99.90
16229;DHT22;8222;51.462;12.630;2023-10-13T01:30:22;17.30;99.90
16229;DHT22;8222;51.462;12.630;2023-10-13T01:32:53;17.30;99.90
16229;DHT22;8222;51.462;12.630;2023-10-13T01:35:19;17.30;99.90
16229;DHT22;8222;51.462;12.630;2023-10-13T01:37:51;17.30;99.90
16229;DHT22;8222;51.462;12.630;2023-10-13T01:40:19;17.40;99.90
16229;DHT22;8222;51.462;12.630;2023-10-13T01:42:48;17.40;99.90
16229;DHT22;8222;51.462;12.630;2023-10-13T01:45:21;17.40;99.90
16229;DHT22;8222;51.462;12.630;2023-10-13T01:47:56;17.40;99.90
16229;DHT22;8222;51.462;12.630;2023-10-13T01:50:24;17.50;99.90
16229;DHT22;8222;51.462;12.630;2023-10-13T01:52:55;17.40;99.90
16229;DHT22;8222;51.462;12.630;2023-10-13T01:55:40;17.40;99.90
16229;DHT22;8222;51.462;12.630;2023-10-13T01:58:12;17.40;99.90
16229;DHT22;8222;51.462;12.630;2023-10-13T02:00:45;17.40;99.90
16229;DHT22;8222;51.462;12.630;2023-10-13T02:03:12;17.50;99.90
16229;DHT22;8222;51.462;12.630;2023-10-13T02:05:46;17.50;99.90
16229;DHT22;8222;51.462;12.630;2023-10-13T02:08:23;17.50;99.90
16229;DHT22;8222;51.462;12.630;2023-10-13T02:13:17;17.50;99.90
16229;DHT22;8222;51.462;12.630;2023-10-13T02:15:46;17.50;99.90
16229;DHT22;8222;51.462;12.630;2023-10-13T02:18:18;17.70;99.90
16229;DHT22;8222;51.462;12.630;2023-10-13T02:20:55;17.60;99.90
16229;DHT22;8222;51.462;12.630;2023-10-13T02:23:28;17.50;99.90
16229;DHT22;8222;51.462;12.630;2023-10-13T02:25:55;17.40;99.90
16229;DHT22;8222;51.462;12.630;2023-10-13T02:28:39;17.40;99.90
16229;DHT22;8222;51.462;12.630;2023-10-13T02:31:05;17.30;99.90
16229;DHT22;8222;51.462;12.630;2023-10-13T02:33:32;17.30;99.90
16229;DHT22;8222;51.462;12.630;2023-10-13T02:35:59;17.30;99.90
16229;DHT22;8222;51.462;12.630;2023-10-13T02:38:29;17.20;99.90
16229;DHT22;8222;51.462;12.630;2023-10-13T02:41:09;17.20;99.90
16229;DHT22;8222;51.462;12.630;2023-10-13T02:43:36;17.10;99.90
16229;DHT22;8222;51.462;12.630;2023-10-13T02:46:06;17.00;99.90
16229;DHT22;8222;51.462;12.630;2023-10-13T02:48:34;16.90;99.90
16229;DHT22;8222;51.462;12.630;2023-10-13T02:51:06;16.90;99.90
16229;DHT22;8222;51.462;12.630;2023-10-13T02:53:49;16.80;99.90
16229;DHT22;8222;51.462;12.630;2023-10-13T02:56:18;16.80;99.90
16229;DHT22;8222;51.462;12.630;2023-10-13T02:58:52;16.80;99.90
16229;DHT22;8222;51.462;12.630;2023-10-13T03:01:36;16.80;99.90
16229;DHT22;8222;51.462;12.630;2023-10-13T03:04:04;16.80;99.90
16229;DHT22;8222;51.462;12.630;2023-10-13T03:06:34;16.70;99.90
16229;DHT22;8222;51.462;12.630;2023-10-13T03:09:08;16.70;99.90
16229;DHT22;8222;51.462;12.630;2023-10-13T03:11:46;16.60;99.90
16229;DHT22;8222;51.462;12.630;2023-10-13T03:14:16;16.60;99.90
16229;DHT22;8222;51.462;12.630;2023-10-13T03:16:54;16.70;99.90
16229;DHT22;8222;51.462;12.630;2023-10-13T03:19:21;16.80;99.90
16229;DHT22;8222;51.462;12.630;2023-10-13T03:21:49;17.00;99.90
16229;DHT22;8222;51.462;12.630;2023-10-13T03:24:25;17.00;99.90
16229;DHT22;8222;51.462;12.630;2023-10-13T03:27:19;16.90;99.90
16229;DHT22;8222;51.462;12.630;2023-10-13T03:29:54;16.80;99.90
16229;DHT22;8222;51.462;12.630;2023-10-13T03:32:20;16.90;99.90
16229;DHT22;8222;51.462;12.630;2023-10-13T03:34:47;17.00;99.90
16229;DHT22;8222;51.462;12.630;2023-10-13T03:37:35;16.90;99.90
16229;DHT22;8222;51.462;12.630;2023-10-13T03:40:12;16.90;99.90
16229;DHT22;8222;51.462;12.630;2023-10-13T03:42:52;16.90;99.90
16229;DHT22;8222;51.462;12.630;2023-10-13T03:45:34;16.90;99.90
16229;DHT22;8222;51.462;12.630;2023-10-13T03:48:11;16.90;99.90
16229;DHT22;8222;51.462;12.630;2023-10-13T03:51:01;16.90;99.90
16229;DHT22;8222;51.462;12.630;2023-10-13T03:53:33;16.90;99.90
16229;DHT22;8222;51.462;12.630;2023-10-13T03:56:08;16.90;99.90
16229;DHT22;8222;51.462;12.630;2023-10-13T03:58:40;16.80;99.90
16229;DHT22;8222;51.462;12.630;2023-10-13T04:01:13;16.90;99.90
16229;DHT22;8222;51.462;12.630;2023-10-13T04:03:44;16.90;99.90
16229;DHT22;8222;51.462;12.630;2023-10-13T04:06:28;16.80;99.90
16229;DHT22;8222;51.462;12.630;2023-10-13T04:09:22;16.70;99.90
16229;DHT22;8222;51.462;12.630;2023-10-13T04:14:33;16.60;99.90
16229;DHT22;8222;51.462;12.630;2023-10-13T04:17:11;16.60;99.90
16229;DHT22;8222;51.462;12.630;2023-10-13T04:19:40;16.60;99.90
16229;DHT22;8222;51.462;12.630;2023-10-13T04:22:24;16.50;99.90
16229;DHT22;8222;51.462;12.630;2023-10-13T04:25:15;16.40;99.90
16229;DHT22;8222;51.462;12.630;2023-10-13T04:28:02;16.40;99.90
16229;DHT22;8222;51.462;12.630;2023-10-13T04:33:31;16.50;99.90
16229;DHT22;8222;51.462;12.630;2023-10-13T04:38:44;16.50;99.90
16229;DHT22;8222;51.462;12.630;2023-10-13T04:44:08;16.50;99.90
16229;DHT22;8222;51.462;12.630;2023-10-13T04:46:53;16.50;99.90
16229;DHT22;8222;51.462;12.630;2023-10-13T04:49:28;16.60;99.90
16229;DHT22;8222;51.462;12.630;2023-10-13T04:51:58;16.80;99.90
16229;DHT22;8222;51.462;12.630;2023-10-13T04:54:29;16.70;99.90
16229;DHT22;8222;51.462;12.630;2023-10-13T04:57:20;16.90;99.90
16229;DHT22;8222;51.462;12.630;2023-10-13T04:59:51;16.90;99.90
16229;DHT22;8222;51.462;12.630;2023-10-13T05:02:30;16.90;99.90
16229;DHT22;8222;51.462;12.630;2023-10-13T05:05:07;16.80;99.90
16229;DHT22;8222;51.462;12.630;2023-10-13T05:07:51;16.80;99.90
16229;DHT22;8222;51.462;12.630;2023-10-13T05:10:36;16.80;99.90
16229;DHT22;8222;51.462;12.630;2023-10-13T05:13:20;16.80;99.90
16229;DHT22;8222;51.462;12.630;2023-10-13T05:16:05;16.90;99.90
16229;DHT22;8222;51.462;12.630;2023-10-13T05:18:51;16.80;99.90
16229;DHT22;8222;51.462;12.630;2023-10-13T05:21:38;16.90;99.90
16229;DHT22;8222;51.462;12.630;2023-10-13T05:24:24;16.80;99.90
16229;DHT22;8222;51.462;12.630;2023-10-13T05:27:11;16.80;99.90
16229;DHT22;8222;51.462;12.630;2023-10-13T05:29:55;16.80;99.90
16229;DHT22;8222;51.462;12.630;2023-10-13T05:32:42;16.80;99.90
16229;DHT22;8222;51.462;12.630;2023-10-13T05:35:30;16.90;99.90
16229;DHT22;8222;51.462;12.630;2023-10-13T05:38:17;16.80;99.90
16229;DHT22;8222;51.462;12.630;2023-10-13T05:41:05;16.90;99.90
16229;DHT22;8222;51.462;12.630;2023-10-13T05:43:49;16.90;99.90
16229;DHT22;8222;51.462;12.630;2023-10-13T05:46:36;17.10;99.90
16229;DHT22;8222;51.462;12.630;2023-10-13T05:49:06;17.10;99.90
16229;DHT22;8222;51.462;12.630;2023-10-13T05:51:55;17.10;99.90
16229;DHT22;8222;51.462;12.630;2023-10-13T05:54:32;17.10;99.90
16229;DHT22;8222;51.462;12.630;2023-10-13T05:57:16;17.20;99.90
16229;DHT22;8222;51.462;12.630;2023-10-13T06:00:00;17.20;99.90
16229;DHT22;8222;51.462;12.630;2023-10-13T06:02:44;17.30;99.90
16229;DHT22;8222;51.462;12.630;2023-10-13T06:05:28;17.40;99.90
16229;DHT22;8222;51.462;12.630;2023-10-13T06:08:15;17.40;99.90
16229;DHT22;8222;51.462;12.630;2023-10-13T06:11:03;17.50;99.90
16229;DHT22;8222;51.462;12.630;2023-10-13T06:13:49;17.50;99.90
16229;DHT22;8222;51.462;12.630;2023-10-13T06:16:34;17.50;99.90
16229;DHT22;8222;51.462;12.630;2023-10-13T06:19:18;17.60;99.90
16229;DHT22;8222;51.462;12.630;2023-10-13T06:22:02;17.60;99.90
16229;DHT22;8222;51.462;12.630;2023-10-13T06:24:46;17.70;99.90
16229;DHT22;8222;51.462;12.630;2023-10-13T06:27:30;17.70;99.90
16229;DHT22;8222;51.462;12.630;2023-10-13T06:30:14;17.90;99.90
16229;DHT22;8222;51.462;12.630;2023-10-13T06:32:45;17.90;99.90
16229;DHT22;8222;51.462;12.630;2023-10-13T06:35:11;18.10;99.90
16229;DHT22;8222;51.462;12.630;2023-10-13T06:37:52;18.20;99.90
16229;DHT22;8222;51.462;12.630;2023-10-13T06:40:25;18.30;99.90
16229;DHT22;8222;51.462;12.630;2023-10-13T06:42:57;18.20;99.90
16229;DHT22;8222;51.462;12.630;2023-10-13T06:45:41;18.20;99.90
16229;DHT22;8222;51.462;12.630;2023-10-13T06:48:07;18.20;99.90
16229;DHT22;8222;51.462;12.630;2023-10-13T06:50:37;18.10;99.90
16229;DHT22;8222;51.462;12.630;2023-10-13T06:53:07;18.10;99.90
16229;DHT22;8222;51.462;12.630;2023-10-13T06:55:37;18.20;99.90
16229;DHT22;8222;51.462;12.630;2023-10-13T06:58:06;18.20;99.90
16229;DHT22;8222;51.462;12.630;2023-10-13T07:00:41;18.20;99.90
16229;DHT22;8222;51.462;12.630;2023-10-13T07:03:27;18.40;99.90
16229;DHT22;8222;51.462;12.630;2023-10-13T07:05:52;18.40;99.90
16229;DHT22;8222;51.462;12.630;2023-10-13T07:08:21;18.40;99.90
16229;DHT22;8222;51.462;12.630;2023-10-13T07:10:55;18.40;99.90
16229;DHT22;8222;51.462;12.630;2023-10-13T07:13:43;18.40;99.90
16229;DHT22;8222;51.462;12.630;2023-10-13T07:16:15;18.50;99.90
16229;DHT22;8222;51.462;12.630;2023-10-13T07:18:46;18.50;99.90
16229;DHT22;8222;51.462;12.630;2023-10-13T07:21:22;18.60;99.90
16229;DHT22;8222;51.462;12.630;2023-10-13T07:23:59;18.70;99.90
16229;DHT22;8222;51.462;12.630;2023-10-13T07:26:34;18.70;99.90
16229;DHT22;8222;51.462;12.630;2023-10-13T07:29:00;18.80;99.90
16229;DHT22;8222;51.462;12.630;2023-10-13T07:31:26;18.90;99.90
16229;DHT22;8222;51.462;12.630;2023-10-13T07:33:55;19.00;99.90
16229;DHT22;8222;51.462;12.630;2023-10-13T07:36:30;19.10;99.90
16229;DHT22;8222;51.462;12.630;2023-10-13T07:39:04;19.20;99.90
16229;DHT22;8222;51.462;12.630;2023-10-13T07:41:56;19.30;99.90
16229;DHT22;8222;51.462;12.630;2023-10-13T07:44:32;19.40;99.90
16229;DHT22;8222;51.462;12.630;2023-10-13T07:46:59;19.50;99.90
16229;DHT22;8222;51.462;12.630;2023-10-13T07:49:31;19.50;99.90
16229;DHT22;8222;51.462;12.630;2023-10-13T07:52:02;19.50;99.90
16229;DHT22;8222;51.462;12.630;2023-10-13T07:54:44;19.50;99.90
16229;DHT22;8222;51.462;12.630;2023-10-13T07:57:13;19.50;99.90
16229;DHT22;8222;51.462;12.630;2023-10-13T07:59:42;19.60;99.90
16229;DHT22;8222;51.462;12.630;2023-10-13T08:02:16;19.70;99.90
16229;DHT22;8222;51.462;12.630;2023-10-13T08:05:02;19.70;99.90
16229;DHT22;8222;51.462;12.630;2023-10-13T08:07:30;19.70;99.90
16229;DHT22;8222;51.462;12.630;2023-10-13T08:10:00;19.70;99.90
16229;DHT22;8222;51.462;12.630;2023-10-13T08:12:39;19.70;99.90
16229;DHT22;8222;51.462;12.630;2023-10-13T08:15:07;19.70;99.90
16229;DHT22;8222;51.462;12.630;2023-10-13T08:17:58;19.80;99.90
16229;DHT22;8222;51.462;12.630;2023-10-13T08:20:25;19.90;99.90
16229;DHT22;8222;51.462;12.630;2023-10-13T08:22:58;20.00;99.90
16229;DHT22;8222;51.462;12.630;2023-10-13T08:25:41;20.00;99.90
16229;DHT22;8222;51.462;12.630;2023-10-13T08:28:25;20.30;99.90
16229;DHT22;8222;51.462;12.630;2023-10-13T08:31:08;20.50;99.90
16229;DHT22;8222;51.462;12.630;2023-10-13T08:33:48;20.40;99.90
16229;DHT22;8222;51.462;12.630;2023-10-13T08:36:14;20.50;99.90
16229;DHT22;8222;51.462;12.630;2023-10-13T08:38:58;20.50;99.90
16229;DHT22;8222;51.462;12.630;2023-10-13T08:41:41;20.40;99.90
16229;DHT22;8222;51.462;12.630;2023-10-13T08:44:27;20.30;99.90
16229;DHT22;8222;51.462;12.630;2023-10-13T08:46:58;20.20;99.90
16229;DHT22;8222;51.462;12.630;2023-10-13T08:49:32;20.10;99.90
16229;DHT22;8222;51.462;12.630;2023-10-13T08:52:05;20.30;99.90
16229;DHT22;8222;51.462;12.630;2023-10-13T08:54:51;20.20;99.90
16229;DHT22;8222;51.462;12.630;2023-10-13T08:57:38;20.10;99.90
16229;DHT22;8222;51.462;12.630;2023-10-13T09:00:08;20.00;99.90
16229;DHT22;8222;51.462;12.630;2023-10-13T09:02:54;20.00;99.90
16229;DHT22;8222;51.462;12.630;2023-10-13T09:05:48;20.10;99.90
16229;DHT22;8222;51.462;12.630;2023-10-13T09:08:31;20.10;99.90
16229;DHT22;8222;51.462;12.630;2023-10-13T09:11:04;20.10;99.90
16229;DHT22;8222;51.462;12.630;2023-10-13T09:13:54;20.00;99.90
16229;DHT22;8222;51.462;12.630;2023-10-13T09:16:29;20.00;99.90
16229;DHT22;8222;51.462;12.630;2023-10-13T09:19:06;20.10;99.90
16229;DHT22;8222;51.462;12.630;2023-10-13T09:21:39;20.10;99.90
16229;DHT22;8222;51.462;12.630;2023-10-13T09:24:13;20.10;99.90
16229;DHT22;8222;51.462;12.630;2023-10-13T09:26:49;20.10;99.90
16229;DHT22;8222;51.462;12.630;2023-10-13T09:29:19;20.10;99.90
16229;DHT22;8222;51.462;12.630;2023-10-13T09:31:47;20.10;99.90
16229;DHT22;8222;51.462;12.630;2023-10-13T09:34:22;20.10;99.90
16229;DHT22;8222;51.462;12.630;2023-10-13T09:37:00;20.10;99.90
16229;DHT22;8222;51.462;12.630;2023-10-13T09:39:28;20.00;99.90
16229;DHT22;8222;51.462;12.630;2023-10-13T09:42:10;20.10;99.90
16229;DHT22;8222;51.462;12.630;2023-10-13T09:44:40;20.10;99.90
16229;DHT22;8222;51.462;12.630;2023-10-13T09:47:10;20.30;99.90
16229;DHT22;8222;51.462;12.630;2023-10-13T09:49:48;20.20;99.90
16229;DHT22;8222;51.462;12.630;2023-10-13T09:52:19;20.30;99.90
16229;DHT22;8222;51.462;12.630;2023-10-13T09:57:35;20.30;99.90
16229;DHT22;8222;51.462;12.630;2023-10-13T10:00:29;20.30;99.90
16229;DHT22;8222;51.462;12.630;2023-10-13T10:03:11;20.40;99.90
16229;DHT22;8222;51.462;12.630;2023-10-13T10:05:59;20.40;99.90
16229;DHT22;8222;51.462;12.630;2023-10-13T10:08:45;20.50;99.90
16229;DHT22;8222;51.462;12.630;2023-10-13T10:11:42;20.50;99.90
16229;DHT22;8222;51.462;12.630;2023-10-13T10:17:07;20.70;99.90
16229;DHT22;8222;51.462;12.630;2023-10-13T10:22:28;20.60;99.90
16229;DHT22;8222;51.462;12.630;2023-10-13T10:25:01;20.40;99.90
16229;DHT22;8222;51.462;12.630;2023-10-13T10:27:29;20.40;99.90
16229;DHT22;8222;51.462;12.630;2023-10-13T10:29:58;20.50;99.90
16229;DHT22;8222;51.462;12.630;2023-10-13T10:32:34;20.40;99.90
16229;DHT22;8222;51.462;12.630;2023-10-13T10:35:04;20.40;99.90
16229;DHT22;8222;51.462;12.630;2023-10-13T10:37:33;20.50;99.90
16229;DHT22;8222;51.462;12.630;2023-10-13T10:40:01;20.70;99.90
16229;DHT22;8222;51.462;12.630;2023-10-13T10:42:34;20.70;99.90
16229;DHT22;8222;51.462;12.630;2023-10-13T10:44:59;20.80;99.90
16229;DHT22;8222;51.462;12.630;2023-10-13T10:47:34;20.70;99.90
16229;DHT22;8222;51.462;12.630;2023-10-13T10:50:04;20.80;99.90
16229;DHT22;8222;51.462;12.630;2023-10-13T10:52:45;20.80;99.90
16229;DHT22;8222;51.462;12.630;2023-10-13T10:55:12;20.80;99.90
16229;DHT22;8222;51.462;12.630;2023-10-13T10:57:40;21.00;99.90
16229;DHT22;8222;51.462;12.630;2023-10-13T11:00:29;21.30;99.90
16229;DHT22;8222;51.462;12.630;2023-10-13T11:03:07;21.30;99.90
16229;DHT22;8222;51.462;12.630;2023-10-13T11:05:46;21.20;99.90
16229;DHT22;8222;51.462;12.630;2023-10-13T11:08:25;21.10;99.90
16229;DHT22;8222;51.462;12.630;2023-10-13T11:11:05;21.10;99.90
16229;DHT22;8222;51.462;12.630;2023-10-13T11:13:43;21.10;99.90
16229;DHT22;8222;51.462;12.630;2023-10-13T11:16:48;21.20;99.90
16229;DHT22;8222;51.462;12.630;2023-10-13T11:19:17;21.20;99.90
16229;DHT22;8222;51.462;12.630;2023-10-13T11:21:49;21.30;99.90
16229;DHT22;8222;51.462;12.630;2023-10-13T11:24:14;21.30;99.90
16229;DHT22;8222;51.462;12.630;2023-10-13T11:26:43;21.30;99.90
16229;DHT22;8222;51.462;12.630;2023-10-13T11:29:31;21.40;99.90
16229;DHT22;8222;51.462;12.630;2023-10-13T11:31:59;21.60;99.90
16229;DHT22;8222;51.462;12.630;2023-10-13T11:34:25;21.60;99.90
16229;DHT22;8222;51.462;12.630;2023-10-13T11:37:01;21.70;99.90
16229;DHT22;8222;51.462;12.630;2023-10-13T11:39:47;21.60;99.90
16229;DHT22;8222;51.462;12.630;2023-10-13T11:42:12;21.50;99.90
16229;DHT22;8222;51.462;12.630;2023-10-13T11:44:45;21.50;99.90
16229;DHT22;8222;51.462;12.630;2023-10-13T11:47:12;21.50;99.90
16229;DHT22;8222;51.462;12.630;2023-10-13T11:49:58;21.50;99.90
16229;DHT22;8222;51.462;12.630;2023-10-13T11:52:28;21.60;99.90
16229;DHT22;8222;51.462;12.630;2023-10-13T11:54:55;21.70;99.90
16229;DHT22;8222;51.462;12.630;2023-10-13T11:57:21;21.80;99.90
16229;DHT22;8222;51.462;12.630;2023-10-13T11:59:49;21.90;99.90
16229;DHT22;8222;51.462;12.630;2023-10-13T12:02:20;22.10;99.90
16229;DHT22;8222;51.462;12.630;2023-10-13T12:04:51;22.10;99.90
16229;DHT22;8222;51.462;12.630;2023-10-13T12:07:19;22.10;99.90
16229;DHT22;8222;51.462;12.630;2023-10-13T12:09:52;22.20;99.90
16229;DHT22;8222;51.462;12.630;2023-10-13T12:12:27;22.30;99.90
16229;DHT22;8222;51.462;12.630;2023-10-13T12:14:58;22.30;99.90
16229;DHT22;8222;51.462;12.630;2023-10-13T12:17:34;22.30;99.90
16229;DHT22;8222;51.462;12.630;2023-10-13T12:20:07;22.50;99.90
16229;DHT22;8222;51.462;12.630;2023-10-13T12:22:37;22.60;99.90
16229;DHT22;8222;51.462;12.630;2023-10-13T12:25:10;22.70;99.90
16229;DHT22;8222;51.462;12.630;2023-10-13T12:28:07;22.90;99.90
16229;DHT22;8222;51.462;12.630;2023-10-13T12:30:49;23.30;99.90
16229;DHT22;8222;51.462;12.630;2023-10-13T12:33:19;23.60;99.90
16229;DHT22;8222;51.462;12.630;2023-10-13T12:36:03;23.60;99.90
16229;DHT22;8222;51.462;12.630;2023-10-13T12:38:37;23.50;99.90
16229;DHT22;8222;51.462;12.630;2023-10-13T12:41:21;23.40;99.90
16229;DHT22;8222;51.462;12.630;2023-10-13T12:44:06;23.40;99.90
16229;DHT22;8222;51.462;12.630;2023-10-13T12:46:52;23.30;99.90
16229;DHT22;8222;51.462;12.630;2023-10-13T12:49:38;23.30;99.90
16229;DHT22;8222;51.462;12.630;2023-10-13T12:52:04;23.60;99.90
16229;DHT22;8222;51.462;12.630;2023-10-13T12:54:31;23.70;99.90
16229;DHT22;8222;51.462;12.630;2023-10-13T12:57:04;23.80;99.90
16229;DHT22;8222;51.462;12.630;2023-10-13T12:59:36;23.80;99.90
16229;DHT22;8222;51.462;12.630;2023-10-13T13:02:06;23.60;99.90
16229;DHT22;8222;51.462;12.630;2023-10-13T13:04:33;23.40;99.90
16229;DHT22;8222;51.462;12.630;2023-10-13T13:07:05;23.20;99.90
16229;DHT22;8222;51.462;12.630;2023-10-13T13:09:31;23.00;99.90
16229;DHT22;8222;51.462;12.630;2023-10-13T13:12:07;23.00;99.90
16229;DHT22;8222;51.462;12.630;2023-10-13T13:14:38;23.00;99.90
16229;DHT22;8222;51.462;12.630;2023-10-13T13:17:06;22.90;99.90
16229;DHT22;8222;51.462;12.630;2023-10-13T13:19:37;22.90;99.90
16229;DHT22;8222;51.462;12.630;2023-10-13T13:22:08;22.80;99.90
16229;DHT22;8222;51.462;12.630;2023-10-13T13:24:42;22.80;99.90
16229;DHT22;8222;51.462;12.630;2023-10-13T13:27:16;22.90;99.90
16229;DHT22;8222;51.462;12.630;2023-10-13T13:29:47;22.90;99.90
16229;DHT22;8222;51.462;12.630;2023-10-13T13:32:13;23.00;99.90
16229;DHT22;8222;51.462;12.630;2023-10-13T13:34:49;23.10;99.90
16229;DHT22;8222;51.462;12.630;2023-10-13T13:37:33;23.30;99.90
16229;DHT22;8222;51.462;12.630;2023-10-13T13:39:59;23.50;99.90
16229;DHT22;8222;51.462;12.630;2023-10-13T13:42:46;23.60;99.90
16229;DHT22;8222;51.462;12.630;2023-10-13T13:45:16;23.70;99.90
16229;DHT22;8222;51.462;12.630;2023-10-13T13:47:48;23.90;99.90
16229;DHT22;8222;51.462;12.630;2023-10-13T13:50:25;23.90;99.90
16229;DHT22;8222;51.462;12.630;2023-10-13T13:52:57;24.00;99.90
16229;DHT22;8222;51.462;12.630;2023-10-13T13:55:24;24.00;99.90
16229;DHT22;8222;51.462;12.630;2023-10-13T13:57:57;24.10;99.90
16229;DHT22;8222;51.462;12.630;2023-10-13T14:00:23;24.20;99.90
16229;DHT22;8222;51.462;12.630;2023-10-13T14:03:04;24.30;99.90
16229;DHT22;8222;51.462;12.630;2023-10-13T14:05:41;24.40;99.90
16229;DHT22;8222;51.462;12.630;2023-10-13T14:08:11;24.50;99.90
16229;DHT22;8222;51.462;12.630;2023-10-13T14:10:41;24.60;99.90
16229;DHT22;8222;51.462;12.630;2023-10-13T14:13:25;24.60;99.90
16229;DHT22;8222;51.462;12.630;2023-10-13T14:16:12;24.60;99.90
16229;DHT22;8222;51.462;12.630;2023-10-13T14:18:45;24.60;99.90
16229;DHT22;8222;51.462;12.630;2023-10-13T14:21:11;24.60;99.90
16229;DHT22;8222;51.462;12.630;2023-10-13T14:23:45;24.70;99.90
16229;DHT22;8222;51.462;12.630;2023-10-13T14:26:17;24.60;99.90
16229;DHT22;8222;51.462;12.630;2023-10-13T14:28:50;24.80;99.90
16229;DHT22;8222;51.462;12.630;2023-10-13T14:31:28;24.80;99.90
16229;DHT22;8222;51.462;12.630;2023-10-13T14:33:54;24.80;99.90
16229;DHT22;8222;51.462;12.630;2023-10-13T14:36:19;24.90;99.90
16229;DHT22;8222;51.462;12.630;2023-10-13T14:38:50;24.80;99.90
16229;DHT22;8222;51.462;12.630;2023-10-13T14:41:18;24.90;99.90
16229;DHT22;8222;51.462;12.630;2023-10-13T14:43:44;24.70;99.90
16229;DHT22;8222;51.462;12.630;2023-10-13T14:46:21;24.60;99.90
16229;DHT22;8222;51.462;12.630;2023-10-13T14:48:53;24.60;99.90
16229;DHT22;8222;51.462;12.630;2023-10-13T14:51:21;24.40;99.90
16229;DHT22;8222;51.462;12.630;2023-10-13T14:53:49;24.50;99.90
16229;DHT22;8222;51.462;12.630;2023-10-13T14:56:16;24.30;99.90
16229;DHT22;8222;51.462;12.630;2023-10-13T14:58:42;24.20;99.90
16229;DHT22;8222;51.462;12.630;2023-10-13T15:01:12;24.10;99.90
16229;DHT22;8222;51.462;12.630;2023-10-13T15:03:44;23.90;99.90
16229;DHT22;8222;51.462;12.630;2023-10-13T15:06:20;23.80;99.90
16229;DHT22;8222;51.462;12.630;2023-10-13T15:08:51;23.70;99.90
16229;DHT22;8222;51.462;12.630;2023-10-13T15:11:17;23.60;99.90
16229;DHT22;8222;51.462;12.630;2023-10-13T15:13:45;23.60;99.90
16229;DHT22;8222;51.462;12.630;2023-10-13T15:16:15;23.60;99.90
16229;DHT22;8222;51.462;12.630;2023-10-13T15:18:46;23.60;99.90
16229;DHT22;8222;51.462;12.630;2023-10-13T15:21:32;23.70;99.90
16229;DHT22;8222;51.462;12.630;2023-10-13T15:24:03;23.70;99.90
16229;DHT22;8222;51.462;12.630;2023-10-13T15:26:35;23.90;99.90
16229;DHT22;8222;51.462;12.630;2023-10-13T15:29:07;23.90;99.90
16229;DHT22;8222;51.462;12.630;2023-10-13T15:31:40;23.90;99.90
16229;DHT22;8222;51.462;12.630;2023-10-13T15:34:11;23.90;99.90
16229;DHT22;8222;51.462;12.630;2023-10-13T15:36:44;23.90;99.90
16229;DHT22;8222;51.462;12.630;2023-10-13T15:39:14;23.80;99.90
16229;DHT22;8222;51.462;12.630;2023-10-13T15:41:44;23.60;99.90
16229;DHT22;8222;51.462;12.630;2023-10-13T15:44:13;23.50;99.90
16229;DHT22;8222;51.462;12.630;2023-10-13T15:46:39;23.30;99.90
16229;DHT22;8222;51.462;12.630;2023-10-13T15:49:05;23.20;99.90
16229;DHT22;8222;51.462;12.630;2023-10-13T15:51:33;23.00;99.90
16229;DHT22;8222;51.462;12.630;2023-10-13T15:54:06;22.90;99.90
16229;DHT22;8222;51.462;12.630;2023-10-13T15:56:43;22.80;99.90
16229;DHT22;8222;51.462;12.630;2023-10-13T15:59:13;22.70;99.90
16229;DHT22;8222;51.462;12.630;2023-10-13T16:01:41;22.60;99.90
16229;DHT22;8222;51.462;12.630;2023-10-13T16:04:07;22.50;99.90
16229;DHT22;8222;51.462;12.630;2023-10-13T16:09:07;22.40;99.90
16229;DHT22;8222;51.462;12.630;2023-10-13T16:11:49;22.40;99.90
16229;DHT22;8222;51.462;12.630;2023-10-13T16:14:14;22.50;99.90
16229;DHT22;8222;51.462;12.630;2023-10-13T16:16:48;22.50;99.90
16229;DHT22;8222;51.462;12.630;2023-10-13T16:19:20;22.50;99.90
16229;DHT22;8222;51.462;12.630;2023-10-13T16:21:53;22.50;99.90
16229;DHT22;8222;51.462;12.630;2023-10-13T16:24:22;22.50;99.90
16229;DHT22;8222;51.462;12.630;2023-10-13T16:26:48;22.50;99.90
16229;DHT22;8222;51.462;12.630;2023-10-13T16:29:20;22.60;99.90
16229;DHT22;8222;51.462;12.630;2023-10-13T16:31:46;22.60;99.90
16229;DHT22;8222;51.462;12.630;2023-10-13T16:34:18;22.60;99.90
16229;DHT22;8222;51.462;12.630;2023-10-13T16:36:50;22.50;99.90
16229;DHT22;8222;51.462;12.630;2023-10-13T16:39:20;22.50;99.90
16229;DHT22;8222;51.462;12.630;2023-10-13T16:41:48;22.50;99.90
16229;DHT22;8222;51.462;12.630;2023-10-13T16:44:21;22.50;99.90